createdAt,value
2018-05-12T00:00:43.405Z,10.10
2018-05-12T00:03:10.879Z,10.10
2018-05-12T00:05:39.095Z,10.20
2018-05-12T00:08:06.935Z,10.10
2018-05-12T00:10:37.745Z,10.10
2018-05-12T00:13:05.192Z,10.10
2018-05-12T00:15:32.656Z,10.00
2018-05-12T00:18:00.678Z,9.80
2018-05-12T00:20:28.167Z,9.80
2018-05-12T00:22:55.591Z,9.70
2018-05-12T00:25:23.069Z,9.70
2018-05-12T00:27:50.521Z,9.70
2018-05-12T00:30:18.123Z,9.80
2018-05-12T00:32:45.550Z,9.80
2018-05-12T00:35:13.528Z,9.70
2018-05-12T00:37:43.184Z,9.70
2018-05-12T00:40:11.393Z,9.60
2018-05-12T00:42:38.916Z,9.60
2018-05-12T00:45:06.369Z,9.60
2018-05-12T00:47:34.588Z,9.80
2018-05-12T00:50:02.051Z,9.80
2018-05-12T00:52:29.504Z,9.80
2018-05-12T00:54:56.963Z,9.90
2018-05-12T00:57:24.443Z,9.70
2018-05-12T00:59:52.508Z,9.70
2018-05-12T01:02:19.952Z,9.50
2018-05-12T01:04:47.409Z,9.40
2018-05-12T01:07:14.857Z,9.30
2018-05-12T01:09:42.907Z,9.20
2018-05-12T01:12:10.365Z,9.10
2018-05-12T01:14:37.818Z,9.00
2018-05-12T01:17:05.270Z,8.90
2018-05-12T01:19:32.772Z,8.80
2018-05-12T01:22:00.224Z,8.80
2018-05-12T01:24:27.681Z,8.90
2018-05-12T01:26:55.156Z,9.00
2018-05-12T01:29:23.091Z,9.10
2018-05-12T01:31:50.550Z,9.20
2018-05-12T01:34:18.002Z,9.20
2018-05-12T01:36:46.009Z,9.10
2018-05-12T01:39:13.464Z,9.10
2018-05-12T01:41:40.920Z,9.00
2018-05-12T01:44:08.368Z,9.00
2018-05-12T01:46:35.844Z,8.90
2018-05-12T01:49:04.061Z,8.90
2018-05-12T01:51:31.514Z,8.90
2018-05-12T01:53:58.972Z,8.90
2018-05-12T01:56:26.918Z,9.10
2018-05-12T01:58:55.136Z,9.50
2018-05-12T02:01:22.593Z,9.50
2018-05-12T02:03:50.053Z,9.60
2018-05-12T02:06:17.491Z,9.80
2018-05-12T02:08:45.375Z,9.90
2018-05-12T02:11:12.838Z,10.10
2018-05-12T02:13:40.331Z,10.30
2018-05-12T02:16:08.552Z,10.60
2018-05-12T02:18:36.010Z,10.50
2018-05-12T02:21:04.021Z,10.60
2018-05-12T02:23:31.479Z,10.60
2018-05-12T02:25:58.944Z,10.50
2018-05-12T02:28:27.171Z,10.60
2018-05-12T02:30:55.315Z,10.60
2018-05-12T02:33:22.769Z,10.60
2018-05-12T02:35:51.409Z,10.50
2018-05-12T02:38:18.869Z,10.50
2018-05-12T02:40:46.336Z,10.50
2018-05-12T02:43:13.790Z,10.50
2018-05-12T02:45:41.247Z,10.40
2018-05-12T02:48:08.709Z,10.40
2018-05-12T02:50:36.161Z,10.30
2018-05-12T02:53:04.025Z,10.20
2018-05-12T02:55:32.384Z,10.10
2018-05-12T02:57:59.987Z,9.90
2018-05-12T03:00:28.465Z,9.70
2018-05-12T03:02:56.683Z,9.60
2018-05-12T03:05:24.750Z,9.60
2018-05-12T03:07:52.203Z,9.40
2018-05-12T03:10:21.097Z,9.30
2018-05-12T03:12:48.759Z,9.20
2018-05-12T03:15:16.228Z,9.20
2018-05-12T03:17:44.080Z,9.10
2018-05-12T03:20:11.958Z,9.10
2018-05-12T03:22:39.823Z,9.10
2018-05-12T03:25:07.407Z,9.10
2018-05-12T03:27:34.969Z,9.20
2018-05-12T03:30:02.527Z,9.20
2018-05-12T03:32:29.996Z,9.30
2018-05-12T03:34:57.540Z,9.30
2018-05-12T03:37:24.987Z,9.40
2018-05-12T03:39:52.557Z,9.30
2018-05-12T03:42:20.435Z,9.30
2018-05-12T03:44:47.889Z,9.30
2018-05-12T03:47:15.352Z,9.20
2018-05-12T03:49:42.920Z,9.10
2018-05-12T03:52:11.204Z,9.00
2018-05-12T03:54:39.233Z,8.90
2018-05-12T03:57:06.712Z,8.90
2018-05-12T03:59:34.156Z,8.90
2018-05-12T04:02:02.173Z,8.90
2018-05-12T04:07:40.832Z,8.90
2018-05-12T04:10:20.176Z,9.10
2018-05-12T04:12:48.076Z,9.10
2018-05-12T04:15:15.544Z,9.20
2018-05-12T04:17:42.993Z,9.20
2018-05-12T04:20:10.450Z,9.20
2018-05-12T04:22:38.196Z,9.20
2018-05-12T04:25:05.669Z,9.30
2018-05-12T04:27:33.544Z,9.30
2018-05-12T04:30:01.091Z,9.40
2018-05-12T04:32:28.652Z,9.60
2018-05-12T04:34:56.131Z,9.70
2018-05-12T04:37:24.672Z,10.10
2018-05-12T04:39:52.260Z,10.10
2018-05-12T04:42:19.719Z,10.40
2018-05-12T04:44:47.177Z,10.70
2018-05-12T04:47:14.632Z,10.90
2018-05-12T04:49:42.087Z,11.30
2018-05-12T04:52:09.554Z,11.70
2018-05-12T04:54:37.012Z,12.20
2018-05-12T04:57:04.977Z,12.80
2018-05-12T04:59:32.433Z,13.20
2018-05-12T05:01:59.889Z,13.60
2018-05-12T05:04:28.292Z,14.00
2018-05-12T05:06:58.575Z,15.10
2018-05-12T05:09:26.024Z,15.00
2018-05-12T05:11:54.196Z,15.80
2018-05-12T05:14:21.652Z,16.50
2018-05-12T05:16:49.108Z,16.90
2018-05-12T05:19:16.561Z,17.50
2018-05-12T05:21:44.020Z,18.10
2018-05-12T05:24:11.472Z,18.50
2018-05-12T05:26:38.990Z,18.70
2018-05-12T05:29:07.286Z,19.20
2018-05-12T05:31:34.776Z,19.20
2018-05-12T05:34:03.234Z,19.60
2018-05-12T05:36:30.711Z,19.80
2018-05-12T05:38:58.184Z,19.70
2018-05-12T05:41:28.093Z,19.40
2018-05-12T05:43:55.757Z,19.40
2018-05-12T05:46:23.313Z,19.30
2018-05-12T05:48:50.863Z,19.70
2018-05-12T05:51:18.425Z,20.30
2018-05-12T05:53:45.877Z,20.60
2018-05-12T05:56:13.960Z,20.50
2018-05-12T05:58:41.409Z,20.70
2018-05-12T06:01:08.862Z,20.80
2018-05-12T06:03:36.330Z,21.30
2018-05-12T06:06:03.781Z,21.80
2018-05-12T06:08:31.882Z,22.40
2018-05-12T06:11:00.099Z,22.10
2018-05-12T06:13:27.556Z,22.10
2018-05-12T06:15:55.013Z,22.30
2018-05-12T06:18:22.468Z,22.70
2018-05-12T06:20:51.401Z,22.50
2018-05-12T06:23:21.404Z,22.90
2018-05-12T06:25:48.877Z,23.20
2018-05-12T06:28:16.336Z,23.00
2018-05-12T06:30:43.783Z,22.40
2018-05-12T06:33:11.344Z,22.00
2018-05-12T06:35:39.556Z,22.20
2018-05-12T06:38:07.780Z,22.30
2018-05-12T06:40:36.015Z,22.30
2018-05-12T06:43:04.220Z,23.20
2018-05-12T06:45:32.328Z,23.10
2018-05-12T06:48:00.164Z,23.60
2018-05-12T06:50:27.632Z,23.70
2018-05-12T06:52:55.100Z,23.60
2018-05-12T06:55:23.337Z,23.80
2018-05-12T06:57:50.780Z,23.70
2018-05-12T07:00:18.263Z,24.40
2018-05-12T07:02:45.745Z,25.00
2018-05-12T07:05:13.216Z,25.10
2018-05-12T07:07:40.683Z,25.20
2018-05-12T07:10:08.908Z,25.40
2018-05-12T07:12:36.362Z,25.40
2018-05-12T07:15:03.824Z,25.70
2018-05-12T07:17:31.301Z,25.50
2018-05-12T07:19:59.165Z,26.00
2018-05-12T07:22:26.617Z,25.70
2018-05-12T07:24:54.074Z,26.20
2018-05-12T07:27:22.670Z,26.10
2018-05-12T07:29:50.219Z,25.60
2018-05-12T07:32:17.783Z,25.10
2018-05-12T07:34:45.345Z,25.30
2018-05-12T07:37:14.521Z,25.50
2018-05-12T07:39:41.992Z,25.60
2018-05-12T07:42:09.552Z,26.10
2018-05-12T07:44:37.041Z,26.40
2018-05-12T07:47:05.260Z,26.40
2018-05-12T07:49:35.176Z,26.40
2018-05-12T07:52:02.656Z,26.30
2018-05-12T07:54:30.107Z,26.80
2018-05-12T07:56:57.843Z,26.80
2018-05-12T07:59:25.258Z,27.30
2018-05-12T08:01:52.719Z,27.30
2018-05-12T08:04:20.265Z,26.90
2018-05-12T08:06:48.154Z,26.50
2018-05-12T08:09:16.506Z,25.40
2018-05-12T08:11:43.991Z,25.40
2018-05-12T08:14:12.217Z,26.10
2018-05-12T08:16:40.083Z,26.00
2018-05-12T08:19:08.195Z,26.70
2018-05-12T08:21:40.038Z,27.60
2018-05-12T08:24:07.950Z,27.60
2018-05-12T08:26:35.665Z,27.50
2018-05-12T08:29:03.104Z,27.40
2018-05-12T08:31:30.601Z,27.60
2018-05-12T08:33:58.016Z,27.90
2018-05-12T08:36:25.467Z,28.00
2018-05-12T08:38:52.944Z,28.50
2018-05-12T08:41:20.837Z,27.60
2018-05-12T08:43:49.492Z,28.20
2018-05-12T08:46:16.943Z,28.20
2018-05-12T08:48:44.400Z,28.70
2018-05-12T08:51:11.872Z,28.90
2018-05-12T08:53:39.435Z,28.80
2018-05-12T08:56:06.896Z,29.20
2018-05-12T08:58:34.355Z,28.60
2018-05-12T09:01:01.816Z,28.60
2018-05-12T09:03:29.283Z,29.00
2018-05-12T09:05:58.776Z,29.10
2018-05-12T09:08:26.224Z,28.50
2018-05-12T09:10:54.396Z,27.60
2018-05-12T09:13:24.068Z,27.90
2018-05-12T09:15:52.078Z,27.90
2018-05-12T09:18:19.519Z,28.00
2018-05-12T09:20:46.968Z,28.70
2018-05-12T09:23:14.452Z,28.50
2018-05-12T09:25:42.681Z,28.10
2018-05-12T09:28:10.376Z,28.10
2018-05-12T09:30:38.103Z,27.70
2018-05-12T09:33:05.817Z,27.90
2018-05-12T09:35:34.088Z,28.50
2018-05-12T09:38:01.552Z,28.50
2018-05-12T09:40:29.001Z,28.10
2018-05-12T09:42:56.533Z,28.10
2018-05-12T09:45:23.998Z,27.80
2018-05-12T09:47:51.509Z,28.10
2018-05-12T09:50:18.955Z,28.30
2018-05-12T09:52:47.175Z,28.00
2018-05-12T09:55:14.752Z,28.00
2018-05-12T09:57:42.231Z,28.10
2018-05-12T10:00:10.455Z,28.10
2018-05-12T10:02:37.947Z,28.10
2018-05-12T10:05:05.420Z,28.30
2018-05-12T10:07:34.384Z,28.30
2018-05-12T10:10:01.840Z,28.30
2018-05-12T10:12:29.291Z,28.20
2018-05-12T10:14:56.863Z,28.50
2018-05-12T10:17:24.329Z,29.40
2018-05-12T10:19:51.776Z,29.10
2018-05-12T10:22:19.452Z,28.30
2018-05-12T10:24:47.011Z,28.90
2018-05-12T10:27:14.508Z,28.80
2018-05-12T10:29:42.031Z,28.90
2018-05-12T10:32:09.825Z,29.30
2018-05-12T10:34:38.992Z,29.60
2018-05-12T10:37:06.445Z,29.60
2018-05-12T10:39:33.899Z,29.00
2018-05-12T10:42:01.743Z,28.80
2018-05-12T10:44:29.196Z,29.10
2018-05-12T10:46:56.673Z,29.40
2018-05-12T10:49:24.393Z,29.40
2018-05-12T10:51:51.887Z,29.80
2018-05-12T10:54:19.348Z,30.50
2018-05-12T10:56:46.808Z,30.60
2018-05-12T10:59:14.291Z,29.80
2018-05-12T11:01:41.744Z,29.50
2018-05-12T11:04:09.199Z,29.40
2018-05-12T11:06:36.687Z,29.60
2018-05-12T11:09:04.144Z,30.20
2018-05-12T11:11:32.924Z,28.70
2018-05-12T11:14:01.196Z,28.80
2018-05-12T11:16:29.407Z,29.50
2018-05-12T11:18:57.601Z,29.40
2018-05-12T11:21:25.057Z,29.90
2018-05-12T11:23:52.780Z,30.50
2018-05-12T11:26:21.397Z,30.10
2018-05-12T11:28:48.886Z,30.10
2018-05-12T11:31:17.308Z,29.50
2018-05-12T11:33:44.755Z,28.70
2018-05-12T11:36:13.265Z,29.10
2018-05-12T11:38:40.716Z,29.10
2018-05-12T11:41:08.639Z,29.40
2018-05-12T11:43:36.123Z,29.50
2018-05-12T11:46:04.196Z,29.70
2018-05-12T11:48:31.639Z,30.70
2018-05-12T11:50:59.859Z,30.10
2018-05-12T11:53:27.323Z,30.00
2018-05-12T11:55:54.815Z,29.80
2018-05-12T11:58:23.738Z,28.70
2018-05-12T12:00:54.688Z,28.70
2018-05-12T12:03:22.132Z,28.80
2018-05-12T12:05:49.608Z,29.80
2018-05-12T12:08:17.068Z,31.00
2018-05-12T12:10:44.529Z,30.40
2018-05-12T12:13:12.540Z,29.40
2018-05-12T12:15:39.988Z,28.80
2018-05-12T12:18:07.460Z,28.50
2018-05-12T12:20:35.690Z,29.00
2018-05-12T12:23:03.140Z,29.00
2018-05-12T12:25:30.600Z,29.90
2018-05-12T12:27:58.047Z,30.20
2018-05-12T12:30:25.568Z,30.50
2018-05-12T12:32:53.798Z,29.80
2018-05-12T12:35:21.257Z,29.80
2018-05-12T12:37:48.709Z,29.80
2018-05-12T12:40:16.428Z,29.20
2018-05-12T12:42:45.779Z,29.70
2018-05-12T12:45:13.248Z,29.70
2018-05-12T12:47:40.695Z,29.80
2018-05-12T12:50:09.395Z,29.20
2018-05-12T12:52:36.876Z,29.20
2018-05-12T12:55:05.104Z,29.10
2018-05-12T12:57:32.612Z,29.10
2018-05-12T13:00:00.840Z,28.80
2018-05-12T13:02:28.516Z,28.80
2018-05-12T13:04:56.050Z,28.40
2018-05-12T13:07:23.435Z,28.40
2018-05-12T13:09:50.903Z,28.60
2018-05-12T13:12:18.924Z,29.30
2018-05-12T13:14:46.380Z,29.80
2018-05-12T13:17:13.840Z,30.40
2018-05-12T13:19:41.293Z,30.40
2018-05-12T13:22:08.799Z,30.40
2018-05-12T13:24:36.217Z,31.20
2018-05-12T13:27:03.680Z,31.30
2018-05-12T13:29:31.133Z,31.10
2018-05-12T13:31:58.586Z,31.00
2018-05-12T13:34:26.871Z,31.80
2018-05-12T13:36:54.716Z,32.10
2018-05-12T13:39:22.433Z,30.90
2018-05-12T13:41:52.306Z,30.60
2018-05-12T13:44:19.747Z,29.90
2018-05-12T13:46:47.220Z,29.00
2018-05-12T13:49:14.675Z,28.30
2018-05-12T13:51:42.137Z,28.10
2018-05-12T13:54:09.580Z,28.20
2018-05-12T13:56:37.052Z,29.00
2018-05-12T13:59:04.829Z,29.20
2018-05-12T14:01:32.288Z,29.10
2018-05-12T14:03:59.745Z,29.70
2018-05-12T14:06:27.834Z,30.60
2018-05-12T14:08:55.300Z,30.80
2018-05-12T14:11:23.285Z,31.20
2018-05-12T14:13:51.512Z,32.60
2018-05-12T14:16:19.412Z,32.60
2018-05-12T14:18:46.864Z,32.70
2018-05-12T14:21:14.600Z,32.80
2018-05-12T14:23:42.096Z,32.50
2018-05-12T14:26:09.544Z,32.70
2018-05-12T14:28:37.003Z,33.20
2018-05-12T14:31:04.474Z,33.60
2018-05-12T14:33:32.696Z,34.20
2018-05-12T14:36:00.452Z,34.20
2018-05-12T14:38:27.915Z,33.60
2018-05-12T14:40:55.372Z,33.90
2018-05-12T14:43:23.185Z,33.40
2018-05-12T14:45:50.642Z,32.30
2018-05-12T14:48:18.143Z,31.70
2018-05-12T14:50:45.712Z,31.10
2018-05-12T14:53:13.165Z,30.80
2018-05-12T14:55:40.646Z,31.00
2018-05-12T14:58:08.122Z,31.20
2018-05-12T15:00:35.580Z,31.50
2018-05-12T15:03:03.045Z,32.10
2018-05-12T15:05:30.873Z,32.70
2018-05-12T15:07:58.418Z,33.10
2018-05-12T15:10:25.859Z,33.10
2018-05-12T15:12:53.353Z,32.70
2018-05-12T15:15:21.271Z,32.30
2018-05-12T15:17:49.483Z,31.70
2018-05-12T15:20:16.937Z,31.70
2018-05-12T15:22:44.392Z,31.60
2018-05-12T15:25:12.412Z,31.70
2018-05-12T15:27:40.041Z,31.60
2018-05-12T15:30:07.517Z,31.70
2018-05-12T15:32:35.531Z,31.40
2018-05-12T15:35:06.328Z,30.30
2018-05-12T15:37:33.791Z,30.30
2018-05-12T15:40:01.251Z,29.60
2018-05-12T15:42:29.296Z,29.60
2018-05-12T15:44:56.748Z,29.70
2018-05-12T15:47:24.248Z,29.60
2018-05-12T15:49:51.866Z,30.10
2018-05-12T15:52:19.311Z,30.90
2018-05-12T15:54:46.769Z,31.10
2018-05-12T15:57:14.792Z,31.70
2018-05-12T15:59:44.091Z,31.80
2018-05-12T16:02:11.542Z,32.10
2018-05-12T16:04:38.996Z,32.00
2018-05-12T16:07:06.456Z,31.90
2018-05-12T16:09:34.166Z,31.60
2018-05-12T16:12:01.612Z,31.50
2018-05-12T16:14:31.485Z,31.10
2018-05-12T16:16:58.944Z,30.90
2018-05-12T16:19:26.389Z,30.50
2018-05-12T16:21:53.838Z,30.40
2018-05-12T16:24:21.319Z,30.50
2018-05-12T16:26:48.773Z,30.60
2018-05-12T16:29:16.228Z,30.50
2018-05-12T16:31:43.672Z,30.50
2018-05-12T16:34:11.129Z,30.30
2018-05-12T16:36:38.581Z,30.20
2018-05-12T16:39:06.078Z,30.40
2018-05-12T16:41:34.296Z,30.10
2018-05-12T16:44:01.763Z,30.10
2018-05-12T16:46:29.612Z,29.90
2018-05-12T16:48:57.626Z,29.90
2018-05-12T16:51:25.097Z,30.00
2018-05-12T16:53:53.314Z,30.10
2018-05-12T16:56:20.787Z,30.10
2018-05-12T16:58:48.237Z,29.80
2018-05-12T17:01:15.709Z,29.80
2018-05-12T17:03:43.381Z,29.80
2018-05-12T17:06:10.829Z,29.40
2018-05-12T17:08:38.273Z,28.90
2018-05-12T17:11:05.741Z,28.70
2018-05-12T17:13:33.336Z,28.40
2018-05-12T17:16:02.724Z,27.70
2018-05-12T17:18:30.187Z,27.60
2018-05-12T17:20:57.632Z,27.30
2018-05-12T17:23:25.857Z,26.70
2018-05-12T17:25:53.311Z,26.60
2018-05-12T17:28:20.755Z,26.40
2018-05-12T17:30:48.665Z,26.10
2018-05-12T17:33:16.916Z,25.80
2018-05-12T17:35:44.385Z,25.60
2018-05-12T17:38:11.835Z,25.30
2018-05-12T17:40:39.996Z,25.10
2018-05-12T17:43:07.451Z,24.80
2018-05-12T17:45:34.905Z,24.70
2018-05-12T17:48:02.356Z,24.50
2018-05-12T17:50:30.660Z,24.10
2018-05-12T17:52:58.152Z,24.10
2018-05-12T17:55:26.193Z,23.90
2018-05-12T17:57:53.643Z,23.80
2018-05-12T18:00:21.099Z,23.60
2018-05-12T18:02:48.967Z,23.50
2018-05-12T18:05:16.428Z,23.30
2018-05-12T18:07:44.395Z,23.20
2018-05-12T18:10:11.843Z,23.00
2018-05-12T18:12:39.312Z,22.90
2018-05-12T18:15:06.769Z,22.80
2018-05-12T18:17:34.275Z,22.60
2018-05-12T18:20:01.813Z,22.40
2018-05-12T18:22:33.365Z,22.30
2018-05-12T18:25:00.811Z,22.10
2018-05-12T18:27:28.289Z,21.90
2018-05-12T18:29:55.739Z,21.80
2018-05-12T18:32:23.195Z,21.60
2018-05-12T18:34:50.682Z,21.50
2018-05-12T18:37:18.896Z,21.20
2018-05-12T18:39:46.498Z,21.10
2018-05-12T18:42:13.976Z,20.90
2018-05-12T18:44:42.767Z,20.60
2018-05-12T18:47:10.994Z,20.40
2018-05-12T18:49:38.440Z,20.40
2018-05-12T18:52:05.903Z,20.30
2018-05-12T18:54:33.447Z,20.20
2018-05-12T18:57:01.871Z,20.10
2018-05-12T18:59:29.383Z,19.90
2018-05-12T19:01:59.148Z,19.80
2018-05-12T19:04:26.598Z,19.70
2018-05-12T19:06:54.466Z,19.70
2018-05-12T19:09:22.022Z,19.60
2018-05-12T19:11:49.477Z,19.50
2018-05-12T19:14:16.989Z,19.40
2018-05-12T19:16:44.454Z,19.30
2018-05-12T19:19:12.003Z,19.30
2018-05-12T19:21:39.449Z,19.20
2018-05-12T19:24:06.900Z,19.20
2018-05-12T19:26:35.393Z,19.10
2018-05-12T19:29:03.112Z,19.10
2018-05-12T19:31:31.236Z,19.00
2018-05-12T19:33:59.588Z,19.00
2018-05-12T19:36:27.813Z,18.90
2018-05-12T19:38:55.340Z,18.90
2018-05-12T19:41:22.726Z,18.90
2018-05-12T19:43:50.245Z,18.90
2018-05-12T19:46:17.641Z,19.00
2018-05-12T19:48:45.195Z,19.10
2018-05-12T19:51:12.681Z,19.10
2018-05-12T19:53:40.361Z,19.10
2018-05-12T19:56:07.814Z,19.10
2018-05-12T19:58:35.268Z,19.20
2018-05-12T20:01:03.110Z,19.20
2018-05-12T20:03:30.561Z,19.20
2018-05-12T20:05:58.019Z,19.20
2018-05-12T20:08:25.491Z,19.20
2018-05-12T20:10:53.527Z,19.20
2018-05-12T20:13:20.985Z,19.20
2018-05-12T20:15:48.470Z,19.10
2018-05-12T20:18:16.444Z,19.00
2018-05-12T20:20:43.892Z,18.90
2018-05-12T20:23:11.375Z,18.80
2018-05-12T20:25:38.886Z,18.70
2018-05-12T20:28:06.369Z,18.60
2018-05-12T20:30:34.569Z,18.50
2018-05-12T20:33:02.735Z,18.50
2018-05-12T20:35:31.292Z,18.30
2018-05-12T20:37:58.751Z,18.30
2018-05-12T20:40:26.206Z,18.30
2018-05-12T20:42:53.687Z,18.30
2018-05-12T20:45:21.144Z,18.20
2018-05-12T20:47:50.748Z,18.30
2018-05-12T20:50:18.221Z,18.30
2018-05-12T20:52:45.756Z,18.30
2018-05-12T20:55:13.679Z,18.40
2018-05-12T20:57:41.290Z,18.40
2018-05-12T21:00:08.731Z,18.50
2018-05-12T21:02:36.188Z,18.50
2018-05-12T21:05:03.658Z,18.60
2018-05-12T21:07:31.215Z,18.60
2018-05-12T21:09:58.695Z,18.60
2018-05-12T21:12:26.184Z,18.60
2018-05-12T21:14:53.655Z,18.60
2018-05-12T21:17:21.147Z,18.50
2018-05-12T21:19:48.617Z,18.50
2018-05-12T21:22:17.315Z,18.50
2018-05-12T21:24:45.631Z,18.30
2018-05-12T21:27:13.083Z,18.30
2018-05-12T21:29:40.633Z,18.20
2018-05-12T21:32:11.286Z,18.10
2018-05-12T21:34:42.192Z,18.10
2018-05-12T21:37:10.404Z,18.10
2018-05-12T21:39:38.168Z,18.00
2018-05-12T21:42:05.836Z,18.10
2018-05-12T21:44:33.321Z,18.00
2018-05-12T21:47:03.362Z,18.00
2018-05-12T21:49:32.023Z,17.90
2018-05-12T21:51:59.500Z,17.90
2018-05-12T21:54:27.793Z,17.90
2018-05-12T21:56:56.608Z,18.00
2018-05-12T21:59:24.077Z,17.90
2018-05-12T22:01:53.467Z,17.90
2018-05-12T22:04:20.925Z,18.00
2018-05-12T22:06:48.416Z,17.90
2018-05-12T22:09:15.997Z,17.90
2018-05-12T22:11:44.242Z,18.00
2018-05-12T22:14:11.699Z,18.00
2018-05-12T22:16:39.164Z,18.00
2018-05-12T22:19:06.617Z,18.00
2018-05-12T22:21:34.087Z,18.00
2018-05-12T22:24:01.554Z,17.90
2018-05-12T22:26:29.316Z,17.90
2018-05-12T22:28:56.784Z,17.80
2018-05-12T22:31:25.527Z,17.80
2018-05-12T22:33:53.367Z,17.80
2018-05-12T22:36:21.138Z,17.70
2018-05-12T22:38:49.200Z,17.70
2018-05-12T22:41:18.540Z,17.70
2018-05-12T22:43:46.315Z,17.60
2018-05-12T22:46:14.566Z,17.50
2018-05-12T22:48:42.019Z,17.40
2018-05-12T22:51:09.477Z,17.40
2018-05-12T22:53:36.960Z,17.30
2018-05-12T22:56:04.515Z,17.10
2018-05-12T22:58:32.079Z,17.10
2018-05-12T23:00:59.600Z,17.00
2018-05-12T23:03:27.042Z,16.90
2018-05-12T23:05:54.553Z,16.90
2018-05-12T23:08:21.995Z,16.80
2018-05-12T23:10:49.677Z,16.70
2018-05-12T23:13:17.224Z,16.70
2018-05-12T23:15:45.329Z,16.60
2018-05-12T23:18:14.103Z,16.50
2018-05-12T23:20:41.640Z,16.50
2018-05-12T23:23:09.211Z,16.40
2018-05-12T23:25:36.987Z,16.30
2018-05-12T23:28:06.072Z,16.10
2018-05-12T23:30:33.939Z,16.10
2018-05-12T23:33:01.396Z,16.10
2018-05-12T23:35:28.852Z,15.90
2018-05-12T23:37:56.316Z,16.00
2018-05-12T23:40:24.583Z,15.90
2018-05-12T23:42:52.139Z,15.90
2018-05-12T23:45:20.308Z,15.90
2018-05-12T23:47:47.764Z,15.80
2018-05-12T23:50:15.228Z,15.70
2018-05-12T23:52:42.676Z,15.80
2018-05-12T23:55:10.268Z,15.70
2018-05-12T23:57:37.716Z,15.60
